Pagina principale
METAR-TAF:

METAR-TAF

Aeroporti :

Monte Scuro, Italia

latitudine: 39-20N, longitudine: 016-24E, altezza: 1710 m

Osservazione

Il bollettino è stato emesso 28 minuti fa, alle 15:55 UTC
Vento 4 kt da ovest/sud-ovest
Temperature 17°C
Umidità 68%
Pressione 1018 hPa
Visibilità 10 km o più
Poco nuvoloso ad un'altezza di 300 ft

METAR: LIBQ 131555Z 24004KT 9999 FEW003 17/11 Q1018

Ora: 18:23 (16:23 UTC)


TAF: mancante

Osservazioni e previsioni meteorologiche di più di 4000 aeroporti (messaggi METAR e TAF).

Le stazioni disponibili sono rappresentate dai dischi gialli e rossi sulla carta.

Puntare il mouse per vedere il nome della stazione.

Clicca sopra per visualizzare le osservazioni e previsioni meteorologiche.

Per cambiare la mappa : fare clic sui pulsanti verdi con una croce nera per ingrandire, il pulsante verde con un trattino per diminuire, o sulla freccia verde per le mappe adiacenti.


METAR-TAF: